Time;durP1;ratioP1;P1;durP2;ratioP2;P2;SDS_P1;SDS_P2;PMS_P1;PMS_P2;Temp;Humidity;BMP_temperature;BMP_pressure;BME280_temperature;BME280_humidity;BME280_pressure;Samples;Min_cycle;Max_cycle;Signal;HPM_P1;HPM_P2
2021/03/27 00:00:13;;;;;;;7.13;5.43;;;9.80;97.50;;;;;;4992734;28;20807;-62
2021/03/27 00:02:46;;;;;;;10.57;6.17;;;9.80;98.20;;;;;;4991712;28;20458;-61
2021/03/27 00:05:26;;;;;;;7.40;5.60;;;9.70;98.40;;;;;;4991368;28;20177;-61
2021/03/27 00:08:07;;;;;;;7.93;6.10;;;9.60;99.20;;;;;;4988896;28;23196;-62
2021/03/27 00:10:55;;;;;;;9.30;6.00;;;9.60;99.90;;;;;;4992550;28;20480;-61
2021/03/27 00:13:36;;;;;;;9.47;5.93;;;9.50;99.90;;;;;;4992054;28;20459;-61
2021/03/27 00:16:20;;;;;;;7.20;5.37;;;9.40;99.90;;;;;;4990637;28;20431;-63
2021/03/27 00:19:13;;;;;;;10.10;5.60;;;9.40;99.90;;;;;;4999253;28;20976;-57
2021/03/27 00:22:05;;;;;;;9.47;5.30;;;9.30;99.90;;;;;;4994124;28;20451;-58
2021/03/27 00:25:11;;;;;;;7.67;5.10;;;9.30;99.90;;;;;;4996961;28;20432;-59
2021/03/27 00:28:22;;;;;;;9.73;5.43;;;9.20;99.90;;;;;;4991699;28;20456;-59
2021/03/27 00:30:59;;;;;;;6.93;5.03;;;9.20;99.90;;;;;;4999437;28;20448;-60
2021/03/27 00:33:30;;;;;;;7.27;5.33;;;9.20;99.90;;;;;;4999624;28;20437;-63
2021/03/27 00:35:58;;;;;;;10.77;6.00;;;9.20;99.90;;;;;;4988207;28;20439;-61
2021/03/27 00:38:32;;;;;;;10.13;6.03;;;9.20;99.90;;;;;;4990907;28;21076;-61
2021/03/27 00:40:59;;;;;;;9.47;5.80;;;9.20;99.90;;;;;;4996663;28;20477;-61
2021/03/27 00:43:34;;;;;;;10.20;7.10;;;9.10;99.90;;;;;;4997620;28;20458;-63
2021/03/27 00:46:04;;;;;;;13.03;7.47;;;9.10;99.90;;;;;;4994348;28;20431;-63
2021/03/27 00:48:35;;;;;;;11.27;6.40;;;9.10;99.90;;;;;;4992661;28;20518;-61
2021/03/27 00:51:26;;;;;;;7.67;5.70;;;9.00;99.90;;;;;;4993644;28;20450;-61
2021/03/27 00:54:06;;;;;;;8.30;5.73;;;9.00;99.90;;;;;;4986384;28;20960;-63
2021/03/27 00:56:58;;;;;;;7.37;5.40;;;9.00;99.90;;;;;;4992383;28;20431;-62
2021/03/27 00:59:28;;;;;;;7.07;4.47;;;9.00;99.90;;;;;;5001320;28;20443;-61
2021/03/27 01:01:56;;;;;;;12.97;6.20;;;9.00;99.90;;;;;;5006056;28;20447;-62
2021/03/27 01:04:32;;;;;;;9.30;5.23;;;8.90;99.90;;;;;;5002727;28;20419;-61
2021/03/27 01:07:04;;;;;;;6.93;4.50;;;8.90;99.90;;;;;;4997962;28;20537;-61
2021/03/27 01:09:52;;;;;;;5.23;3.73;;;8.90;99.90;;;;;;4993977;28;20424;-61
2021/03/27 01:12:26;;;;;;;4.60;4.10;;;8.80;99.90;;;;;;4996576;28;20443;-62
2021/03/27 01:14:56;;;;;;;5.00;3.93;;;8.80;99.90;;;;;;4992007;28;20435;-62
2021/03/27 01:17:30;;;;;;;5.00;3.93;;;8.70;99.90;;;;;;4995675;28;20480;-61
2021/03/27 01:20:08;;;;;;;6.37;4.17;;;8.70;99.90;;;;;;5001737;28;20810;-61
2021/03/27 01:22:34;;;;;;;4.57;3.10;;;8.70;99.90;;;;;;4999398;28;20455;-62
2021/03/27 01:25:03;;;;;;;6.30;3.90;;;8.70;99.90;;;;;;4992680;28;20429;-61
2021/03/27 01:27:46;;;;;;;4.73;3.57;;;8.70;99.90;;;;;;4997678;28;20526;-61
2021/03/27 01:30:18;;;;;;;5.37;4.00;;;8.70;99.90;;;;;;5000256;28;20458;-61
2021/03/27 01:32:49;;;;;;;4.30;3.47;;;8.70;99.90;;;;;;4995947;28;20444;-61
2021/03/27 01:35:43;;;;;;;5.20;3.83;;;8.60;99.90;;;;;;4995721;28;20462;-62
2021/03/27 01:38:24;;;;;;;6.17;3.83;;;8.60;99.90;;;;;;4995174;28;20802;-61
2021/03/27 01:41:15;;;;;;;6.60;4.37;;;8.60;99.90;;;;;;4995751;28;20522;-63
2021/03/27 01:44:05;;;;;;;5.70;4.40;;;8.60;99.90;;;;;;4993938;28;20460;-60
2021/03/27 01:47:03;;;;;;;5.83;3.70;;;8.60;99.90;;;;;;5001532;28;20526;-62
2021/03/27 01:49:59;;;;;;;5.40;4.00;;;8.50;99.90;;;;;;4980283;28;20444;-60
2021/03/27 01:53:02;;;;;;;4.53;3.80;;;8.50;99.90;;;;;;5001662;28;20955;-61
2021/03/27 01:55:50;;;;;;;5.37;3.90;;;8.50;99.90;;;;;;4993190;28;20521;-61
2021/03/27 01:58:32;;;;;;;5.10;3.80;;;8.40;99.90;;;;;;4997412;28;20975;-61
2021/03/27 02:01:06;;;;;;;6.63;3.77;;;8.50;99.90;;;;;;4990491;28;20438;-61
2021/03/27 02:03:50;;;;;;;6.17;4.53;;;8.50;99.90;;;;;;4994498;28;20451;-60
2021/03/27 02:06:38;;;;;;;5.07;3.60;;;8.50;99.90;;;;;;4997682;28;20511;-61
2021/03/27 02:09:12;;;;;;;5.27;3.93;;;8.40;99.90;;;;;;4977602;28;20936;-63
2021/03/27 02:11:50;;;;;;;5.27;3.57;;;8.40;99.90;;;;;;5015521;28;20606;-61
2021/03/27 02:14:31;;;;;;;4.90;4.07;;;8.40;99.90;;;;;;4994726;28;20439;-61
2021/03/27 02:17:17;;;;;;;5.20;3.80;;;8.40;99.90;;;;;;4997477;28;20811;-61
2021/03/27 02:20:08;;;;;;;8.20;4.00;;;8.40;99.90;;;;;;4990909;28;20878;-62
2021/03/27 02:23:00;;;;;;;5.23;4.30;;;8.40;99.90;;;;;;4996312;28;20545;-61
2021/03/27 02:25:58;;;;;;;6.07;4.00;;;8.40;99.90;;;;;;4982943;28;20969;-63
2021/03/27 02:28:24;;;;;;;4.63;3.87;;;8.40;99.90;;;;;;4994041;28;20454;-61
2021/03/27 02:30:56;;;;;;;7.77;4.00;;;8.30;99.90;;;;;;4997028;28;20438;-64
2021/03/27 02:33:33;;;;;;;5.63;4.30;;;8.30;99.90;;;;;;4994019;28;20222;-61
2021/03/27 02:36:12;;;;;;;8.87;4.07;;;8.40;99.90;;;;;;4998281;28;20578;-61
2021/03/27 02:39:01;;;;;;;5.90;3.70;;;8.40;99.90;;;;;;4993129;28;20447;-61
2021/03/27 02:41:44;;;;;;;6.20;3.50;;;8.30;99.90;;;;;;4997546;28;20431;-62
2021/03/27 02:44:17;;;;;;;5.20;4.20;;;8.30;99.90;;;;;;4998361;28;20423;-62
2021/03/27 02:46:53;;;;;;;6.23;3.60;;;8.30;99.90;;;;;;4995786;28;20434;-61
2021/03/27 02:49:29;;;;;;;6.60;4.07;;;8.30;99.90;;;;;;4996633;28;20948;-61
2021/03/27 02:52:19;;;;;;;5.03;4.10;;;8.30;99.90;;;;;;4991465;28;20435;-61
2021/03/27 02:54:56;;;;;;;4.57;3.73;;;8.30;99.90;;;;;;4997295;28;20438;-65
2021/03/27 02:58:03;;;;;;;6.20;4.07;;;8.20;99.90;;;;;;5010295;28;20486;-61
2021/03/27 03:01:01;;;;;;;3.87;3.47;;;8.20;99.90;;;;;;4998806;28;20436;-61
2021/03/27 03:03:41;;;;;;;6.83;4.30;;;8.20;99.90;;;;;;4994041;28;20507;-61
2021/03/27 03:06:18;;;;;;;6.67;4.20;;;8.20;99.90;;;;;;4995408;28;21065;-62
2021/03/27 03:09:24;;;;;;;4.97;3.40;;;8.20;99.90;;;;;;4993464;28;21040;-62
2021/03/27 03:11:56;;;;;;;6.57;3.70;;;8.20;99.90;;;;;;4990248;28;20476;-61
2021/03/27 03:15:03;;;;;;;5.40;3.80;;;8.20;99.90;;;;;;4998328;28;20436;-61
2021/03/27 03:18:10;;;;;;;6.00;3.53;;;8.20;99.90;;;;;;4987954;28;20458;-63
2021/03/27 03:20:45;;;;;;;4.27;3.60;;;8.20;99.90;;;;;;4980884;28;20449;-63
2021/03/27 03:23:16;;;;;;;4.27;3.37;;;8.10;99.90;;;;;;5002232;28;20518;-63
2021/03/27 03:26:00;;;;;;;4.13;3.73;;;8.10;99.90;;;;;;4996902;28;20514;-63
2021/03/27 03:28:31;;;;;;;7.20;3.57;;;8.10;99.90;;;;;;4999532;28;20446;-61
2021/03/27 03:31:22;;;;;;;3.70;3.30;;;8.10;99.90;;;;;;4993103;28;20516;-61
2021/03/27 03:34:00;;;;;;;4.30;3.23;;;8.10;99.90;;;;;;4991411;28;20432;-63
2021/03/27 03:36:30;;;;;;;4.70;3.33;;;8.10;99.90;;;;;;4991459;28;20438;-62
2021/03/27 03:39:23;;;;;;;4.90;3.63;;;8.10;99.90;;;;;;4990047;28;20971;-61
2021/03/27 03:42:24;;;;;;;3.23;2.87;;;8.10;99.90;;;;;;4995878;28;20460;-60
2021/03/27 03:45:19;;;;;;;4.17;3.13;;;8.10;99.90;;;;;;4977607;28;20462;-60
2021/03/27 03:48:22;;;;;;;3.30;2.67;;;8.10;99.90;;;;;;4994521;28;21063;-62
2021/03/27 03:50:56;;;;;;;4.50;3.30;;;8.10;99.90;;;;;;4992890;28;20932;-62
2021/03/27 03:53:37;;;;;;;3.60;2.87;;;8.10;99.90;;;;;;4996769;28;20820;-64
2021/03/27 03:56:18;;;;;;;2.63;2.40;;;8.10;99.90;;;;;;4995002;28;20804;-61
2021/03/27 03:59:22;;;;;;;2.87;2.60;;;8.10;99.90;;;;;;4996866;28;20815;-61
2021/03/27 04:01:54;;;;;;;3.40;2.63;;;8.10;99.90;;;;;;4984466;28;20845;-60
2021/03/27 04:04:51;;;;;;;4.20;2.93;;;8.10;99.90;;;;;;4995912;28;20805;-63
2021/03/27 04:07:26;;;;;;;3.30;2.70;;;8.00;99.90;;;;;;4994063;28;20447;-61
2021/03/27 04:10:04;;;;;;;2.43;2.20;;;8.00;99.90;;;;;;4994338;28;20430;-62
2021/03/27 04:12:53;;;;;;;2.80;2.23;;;8.00;99.90;;;;;;4990012;28;20434;-60
2021/03/27 04:15:37;;;;;;;6.90;2.43;;;8.00;99.90;;;;;;4992434;28;20432;-62
2021/03/27 04:18:42;;;;;;;4.80;2.70;;;8.00;99.90;;;;;;4997326;28;20461;-61
2021/03/27 04:21:31;;;;;;;3.07;2.53;;;7.90;99.90;;;;;;4983000;28;20943;-62
2021/03/27 04:24:23;;;;;;;4.13;3.30;;;7.90;99.90;;;;;;4995400;28;20436;-60
2021/03/27 04:26:54;;;;;;;3.40;3.10;;;7.90;99.90;;;;;;4991107;28;20959;-61
2021/03/27 04:29:22;;;;;;;4.00;3.10;;;7.90;99.90;;;;;;4979503;28;20816;-60
2021/03/27 04:32:26;;;;;;;3.90;3.17;;;7.90;99.90;;;;;;4991702;28;20762;-63
2021/03/27 04:35:13;;;;;;;3.53;2.53;;;7.80;99.90;;;;;;4996664;28;20442;-61
2021/03/27 04:37:54;;;;;;;2.83;2.53;;;7.90;99.90;;;;;;4997463;28;20451;-62
2021/03/27 04:40:27;;;;;;;3.77;3.20;;;7.80;99.90;;;;;;4998919;28;20518;-62
2021/03/27 04:43:02;;;;;;;3.33;2.80;;;7.80;99.90;;;;;;4995969;28;22017;-63
2021/03/27 04:45:45;;;;;;;3.20;2.67;;;7.70;99.90;;;;;;4997590;28;20442;-61
2021/03/27 04:48:58;;;;;;;3.93;2.90;;;7.70;99.90;;;;;;5011614;28;20451;-61
2021/03/27 04:51:33;;;;;;;4.30;2.77;;;7.70;99.90;;;;;;4987406;28;20485;-61
2021/03/27 04:54:18;;;;;;;2.50;1.87;;;7.70;99.90;;;;;;5007170;28;20426;-61
2021/03/27 04:56:56;;;;;;;1.63;1.53;;;7.60;99.90;;;;;;5003417;28;20812;-60
2021/03/27 04:59:37;;;;;;;1.30;1.20;;;7.50;99.90;;;;;;5003477;28;20560;-63
2021/03/27 05:02:06;;;;;;;1.53;1.20;;;7.30;99.90;;;;;;5011708;28;20446;-61
2021/03/27 05:05:03;;;;;;;1.37;1.27;;;7.20;99.90;;;;;;5008809;28;20427;-60
2021/03/27 05:07:46;;;;;;;4.47;3.17;;;7.10;99.90;;;;;;5019167;28;20520;-63
2021/03/27 05:10:39;;;;;;;1.53;1.43;;;7.00;99.90;;;;;;5007544;28;20419;-61
2021/03/27 05:13:29;;;;;;;1.00;1.00;;;6.90;99.90;;;;;;4989886;28;20446;-63
2021/03/27 05:16:21;;;;;;;2.20;1.00;;;6.80;99.90;;;;;;5002561;28;20793;-61
2021/03/27 05:19:10;;;;;;;1.07;1.07;;;6.70;99.90;;;;;;5005368;28;20486;-61
2021/03/27 05:21:46;;;;;;;2.10;1.30;;;6.60;99.90;;;;;;4996357;28;20442;-60
2021/03/27 05:24:26;;;;;;;1.03;1.03;;;6.50;99.90;;;;;;4997810;28;20744;-61
2021/03/27 05:26:55;;;;;;;0.90;0.90;;;6.50;99.90;;;;;;4996269;28;22588;-61
2021/03/27 05:30:14;;;;;;;3.67;1.10;;;6.40;99.90;;;;;;5006020;28;20799;-63
2021/03/27 05:32:47;;;;;;;1.87;1.10;;;6.30;99.90;;;;;;4978408;28;20443;-61
2021/03/27 05:35:47;;;;;;;1.10;1.00;;;6.20;99.60;;;;;;5005031;28;20461;-60
2021/03/27 05:38:19;;;;;;;1.10;0.90;;;6.10;99.90;;;;;;5004103;28;20984;-61
2021/03/27 05:41:08;;;;;;;1.63;1.10;;;6.10;99.90;;;;;;5006900;28;20435;-62
2021/03/27 05:43:52;;;;;;;1.00;1.00;;;6.10;99.90;;;;;;5014160;28;20469;-62
2021/03/27 05:46:58;;;;;;;0.97;0.97;;;6.10;99.60;;;;;;5011708;28;20444;-60
2021/03/27 05:49:44;;;;;;;0.93;0.93;;;6.00;99.30;;;;;;4998973;28;20427;-61
2021/03/27 05:52:19;;;;;;;1.00;0.90;;;6.00;99.80;;;;;;4998690;28;20438;-60
2021/03/27 05:54:51;;;;;;;0.93;0.90;;;5.90;99.90;;;;;;5005604;28;20443;-61
2021/03/27 05:57:44;;;;;;;1.17;1.07;;;6.00;99.90;;;;;;5000329;28;20553;-61
2021/03/27 06:00:39;;;;;;;1.20;1.10;;;5.90;99.90;;;;;;5005536;28;20425;-61
2021/03/27 06:03:35;;;;;;;1.33;1.10;;;6.00;99.90;;;;;;4999025;28;20471;-61
2021/03/27 06:06:19;;;;;;;1.40;1.30;;;6.00;99.90;;;;;;5002126;28;20444;-61
2021/03/27 06:09:06;;;;;;;1.20;1.10;;;5.90;99.70;;;;;;5003806;28;20467;-60
2021/03/27 06:11:35;;;;;;;1.40;1.30;;;5.90;98.80;;;;;;5001581;28;20856;-62
2021/03/27 06:14:32;;;;;;;1.40;1.30;;;5.90;99.30;;;;;;5004617;28;20430;-62
2021/03/27 06:17:21;;;;;;;1.63;0.93;;;5.90;99.60;;;;;;5006430;28;20493;-60
2021/03/27 06:20:08;;;;;;;0.90;0.90;;;5.90;98.80;;;;;;4994558;28;20463;-61
2021/03/27 06:22:54;;;;;;;2.10;1.10;;;5.90;99.40;;;;;;5010931;28;20637;-61
2021/03/27 06:25:26;;;;;;;1.60;1.50;;;5.90;99.40;;;;;;5012920;28;20542;-62
2021/03/27 06:28:16;;;;;;;1.83;1.73;;;6.00;99.50;;;;;;5015264;28;20590;-62
2021/03/27 06:31:07;;;;;;;3.70;1.13;;;6.00;99.20;;;;;;5015898;28;20451;-63
2021/03/27 06:34:20;;;;;;;1.67;1.00;;;6.00;97.90;;;;;;5019683;28;20448;-63
2021/03/27 06:37:34;;;;;;;2.50;0.90;;;6.00;98.40;;;;;;5018869;28;20443;-63
2021/03/27 06:40:33;;;;;;;5.03;1.10;;;6.00;99.00;;;;;;4995978;28;20440;-59
2021/03/27 06:43:05;;;;;;;1.00;0.90;;;6.00;99.30;;;;;;4996865;28;20506;-60
2021/03/27 06:45:51;;;;;;;0.80;0.80;;;6.00;98.30;;;;;;4995869;28;21132;-61
2021/03/27 06:48:58;;;;;;;1.27;1.10;;;6.10;98.40;;;;;;4997327;28;20439;-61
2021/03/27 06:51:48;;;;;;;2.20;1.50;;;6.10;97.90;;;;;;5003778;28;20427;-60
2021/03/27 06:54:32;;;;;;;1.80;1.17;;;6.10;98.20;;;;;;5000676;28;20440;-59
2021/03/27 06:57:23;;;;;;;2.80;1.47;;;6.10;96.90;;;;;;5009283;28;20676;-60
2021/03/27 07:00:43;;;;;;;1.20;1.20;;;6.10;96.50;;;;;;5007893;28;20431;-61
2021/03/27 07:03:33;;;;;;;1.20;1.10;;;6.20;97.80;;;;;;5004035;28;21050;-61
2021/03/27 07:06:23;;;;;;;1.20;1.10;;;6.20;96.10;;;;;;5008619;28;20908;-61
2021/03/27 07:09:18;;;;;;;1.63;1.20;;;6.20;95.20;;;;;;5006046;28;20460;-60
2021/03/27 07:12:11;;;;;;;1.20;1.10;;;6.30;94.90;;;;;;5002112;28;20435;-60
2021/03/27 07:14:47;;;;;;;1.33;1.23;;;6.50;94.40;;;;;;4999685;28;20436;-61
2021/03/27 07:17:30;;;;;;;2.40;1.03;;;6.60;94.50;;;;;;5000737;28;20465;-61
2021/03/27 07:20:33;;;;;;;5.93;1.07;;;6.80;94.40;;;;;;5007590;28;20512;-61
2021/03/27 07:23:00;;;;;;;1.10;1.10;;;6.90;95.40;;;;;;5000812;28;20451;-61
2021/03/27 07:25:47;;;;;;;2.00;0.97;;;7.10;94.90;;;;;;5021771;28;20982;-60
2021/03/27 07:28:41;;;;;;;1.10;1.00;;;7.10;93.50;;;;;;5007344;28;20483;-61
2021/03/27 07:31:49;;;;;;;1.30;1.10;;;7.00;93.60;;;;;;5000824;28;20420;-60
2021/03/27 07:34:39;;;;;;;1.10;1.00;;;6.90;94.20;;;;;;4996141;28;20851;-61
2021/03/27 07:37:24;;;;;;;1.10;0.90;;;6.90;93.70;;;;;;5008058;28;20470;-60
2021/03/27 07:40:08;;;;;;;0.97;0.97;;;6.90;94.00;;;;;;5004760;28;20435;-60
2021/03/27 07:43:04;;;;;;;1.70;1.10;;;6.90;95.20;;;;;;4996861;28;20840;-60
2021/03/27 07:45:41;;;;;;;2.57;1.50;;;6.90;95.20;;;;;;4993848;28;20597;-60
2021/03/27 07:48:06;;;;;;;2.90;1.10;;;6.90;94.50;;;;;;4999849;28;20447;-61
2021/03/27 07:50:47;;;;;;;1.03;1.03;;;6.90;91.10;;;;;;4996763;28;21014;-61
2021/03/27 07:53:28;;;;;;;2.30;1.37;;;6.80;91.80;;;;;;5009546;28;20242;-61
2021/03/27 07:56:05;;;;;;;6.20;1.10;;;6.80;91.60;;;;;;5002175;28;20442;-61
2021/03/27 07:59:09;;;;;;;1.10;1.00;;;6.80;91.10;;;;;;5000657;28;20470;-60
2021/03/27 08:01:41;;;;;;;1.43;1.23;;;6.70;84.80;;;;;;4994826;28;20594;-60
2021/03/27 08:04:44;;;;;;;1.90;1.30;;;6.60;88.00;;;;;;4996113;28;20427;-60
2021/03/27 08:07:19;;;;;;;1.67;1.30;;;6.60;84.10;;;;;;4995091;28;20451;-62
2021/03/27 08:10:04;;;;;;;1.27;1.17;;;6.70;80.30;;;;;;5000160;28;20430;-59
2021/03/27 08:12:51;;;;;;;1.83;1.10;;;6.60;74.90;;;;;;5013717;28;20430;-61
2021/03/27 08:15:29;;;;;;;2.90;1.20;;;6.60;72.60;;;;;;5001711;28;20523;-61
2021/03/27 08:18:06;;;;;;;3.03;1.40;;;6.50;73.70;;;;;;4993844;28;20443;-61
2021/03/27 08:20:49;;;;;;;1.20;1.10;;;6.40;72.60;;;;;;4990971;28;20985;-61
2021/03/27 08:23:25;;;;;;;1.40;1.30;;;6.40;76.70;;;;;;4988500;28;21050;-61
2021/03/27 08:26:16;;;;;;;1.30;1.20;;;6.40;77.30;;;;;;4994366;28;20434;-60
2021/03/27 08:28:53;;;;;;;4.70;1.60;;;6.40;80.60;;;;;;5000492;28;20451;-60
2021/03/27 08:31:46;;;;;;;1.70;1.57;;;6.50;72.10;;;;;;4993359;28;20424;-59
2021/03/27 08:34:26;;;;;;;2.70;1.40;;;6.60;70.30;;;;;;4991281;28;21002;-58
2021/03/27 08:37:10;;;;;;;3.00;1.63;;;6.60;70.10;;;;;;4992078;28;20442;-59
2021/03/27 08:39:54;;;;;;;2.40;1.20;;;6.60;68.60;;;;;;4999730;28;20431;-59
2021/03/27 08:42:26;;;;;;;8.30;2.00;;;6.50;65.60;;;;;;5011621;28;20592;-59
2021/03/27 08:45:12;;;;;;;1.20;1.10;;;6.50;65.30;;;;;;4997661;28;20439;-60
2021/03/27 08:47:59;;;;;;;4.30;1.63;;;6.50;71.10;;;;;;4993547;28;20911;-64
2021/03/27 08:50:49;;;;;;;1.80;1.20;;;6.70;70.80;;;;;;4987512;28;21503;-63
2021/03/27 08:53:31;;;;;;;2.97;1.20;;;7.00;67.20;;;;;;4991186;28;20431;-61
2021/03/27 08:56:24;;;;;;;2.80;1.43;;;7.30;60.60;;;;;;5003478;28;20980;-60
2021/03/27 08:59:09;;;;;;;1.67;1.13;;;7.50;58.60;;;;;;5007425;28;20471;-61
2021/03/27 09:02:12;;;;;;;2.50;1.13;;;7.80;57.10;;;;;;4995549;28;20939;-62
2021/03/27 09:05:13;;;;;;;2.20;1.30;;;7.90;55.20;;;;;;4995376;28;20434;-63
2021/03/27 09:07:41;;;;;;;5.00;1.80;;;8.00;54.60;;;;;;4931442;28;20452;-62
2021/03/27 09:10:35;;;;;;;0.77;0.77;;;8.10;54.40;;;;;;4985422;28;20446;-62
2021/03/27 09:13:19;;;;;;;4.20;1.30;;;8.00;53.20;;;;;;4995057;28;20443;-63
2021/03/27 09:16:09;;;;;;;1.43;1.20;;;8.00;49.90;;;;;;5001688;28;20427;-62
2021/03/27 09:18:46;;;;;;;4.10;1.10;;;8.00;50.60;;;;;;5003586;28;20453;-62
2021/03/27 09:21:33;;;;;;;1.00;1.00;;;8.10;50.90;;;;;;4997999;28;20428;-63
2021/03/27 09:24:23;;;;;;;1.57;1.20;;;8.20;50.40;;;;;;4996410;28;20442;-63
2021/03/27 09:26:58;;;;;;;1.30;1.20;;;8.30;50.70;;;;;;4993477;28;20876;-63
2021/03/27 09:29:42;;;;;;;1.53;1.10;;;8.40;49.60;;;;;;5006192;28;20433;-62
2021/03/27 09:32:34;;;;;;;3.20;1.30;;;8.40;47.20;;;;;;5004790;28;20443;-62
2021/03/27 09:35:16;;;;;;;3.30;1.20;;;8.40;47.20;;;;;;5015147;28;20466;-60
2021/03/27 09:37:57;;;;;;;0.77;0.77;;;8.40;46.10;;;;;;5001740;28;20447;-63
2021/03/27 09:40:53;;;;;;;1.70;0.83;;;8.50;46.90;;;;;;5000298;28;20431;-60
2021/03/27 09:43:37;;;;;;;1.30;1.20;;;8.60;46.10;;;;;;4999279;28;21113;-62
2021/03/27 09:46:14;;;;;;;2.73;1.10;;;8.70;46.80;;;;;;5010145;28;20955;-61
2021/03/27 09:48:49;;;;;;;2.80;1.33;;;8.90;47.10;;;;;;5002228;28;20458;-61
2021/03/27 09:51:52;;;;;;;1.97;0.97;;;9.10;45.60;;;;;;5015851;28;21014;-62
2021/03/27 09:54:45;;;;;;;2.90;1.10;;;8.80;43.80;;;;;;5004776;28;20435;-63
2021/03/27 09:57:56;;;;;;;4.30;1.80;;;8.50;44.80;;;;;;5006400;28;20463;-63
2021/03/27 10:00:47;;;;;;;1.50;1.40;;;8.50;45.60;;;;;;5001275;28;20431;-63
2021/03/27 10:03:43;;;;;;;2.30;1.33;;;8.70;44.70;;;;;;5007652;28;20455;-63
2021/03/27 10:06:24;;;;;;;1.47;0.93;;;8.90;41.80;;;;;;5007056;28;20439;-63
2021/03/27 10:09:05;;;;;;;2.00;1.23;;;8.90;42.70;;;;;;5005507;28;20451;-63
2021/03/27 10:11:34;;;;;;;2.73;1.07;;;9.00;44.50;;;;;;5013780;28;20801;-59
2021/03/27 10:14:24;;;;;;;2.30;1.07;;;9.20;44.20;;;;;;5000764;28;20443;-61
2021/03/27 10:16:55;;;;;;;1.20;1.10;;;9.20;42.40;;;;;;4998166;28;20436;-62
2021/03/27 10:19:35;;;;;;;2.17;1.10;;;9.20;41.90;;;;;;5007098;28;20516;-62
2021/03/27 10:22:48;;;;;;;2.00;1.20;;;9.20;41.60;;;;;;4994827;28;20478;-62
2021/03/27 10:25:33;;;;;;;1.83;1.00;;;9.30;42.10;;;;;;4995361;28;20930;-63
2021/03/27 10:28:04;;;;;;;1.47;1.37;;;9.50;42.10;;;;;;4999887;28;21053;-60
2021/03/27 10:30:48;;;;;;;5.33;1.40;;;9.60;43.50;;;;;;4992779;28;20426;-63
2021/03/27 10:33:51;;;;;;;7.50;1.30;;;9.80;41.70;;;;;;5000493;28;20431;-63
2021/03/27 10:36:29;;;;;;;1.60;1.37;;;9.70;40.90;;;;;;4991830;28;20435;-63
2021/03/27 10:39:26;;;;;;;6.10;1.13;;;9.80;41.80;;;;;;5003598;28;20513;-63
2021/03/27 10:42:10;;;;;;;4.07;1.40;;;9.80;41.80;;;;;;4996546;28;20451;-63
2021/03/27 10:45:30;;;;;;;4.67;1.40;;;9.90;41.80;;;;;;4997774;28;20440;-61
2021/03/27 10:48:04;;;;;;;3.97;1.50;;;9.90;41.90;;;;;;4972032;28;20523;-62
2021/03/27 10:50:50;;;;;;;3.90;1.20;;;9.80;41.30;;;;;;4972858;28;21082;-62
2021/03/27 10:53:34;;;;;;;1.77;1.10;;;9.70;41.00;;;;;;4986217;28;20463;-62
2021/03/27 10:56:12;;;;;;;3.23;1.10;;;9.80;40.20;;;;;;5006983;28;20413;-63
2021/03/27 10:58:59;;;;;;;1.33;1.03;;;9.70;40.80;;;;;;4994909;28;20494;-63
2021/03/27 11:01:46;;;;;;;2.60;1.10;;;9.50;40.30;;;;;;5004873;28;20842;-62
2021/03/27 11:04:26;;;;;;;1.33;1.17;;;9.40;40.10;;;;;;5006546;28;20951;-62
2021/03/27 11:07:26;;;;;;;1.80;1.10;;;9.40;40.00;;;;;;5013333;28;20431;-62
2021/03/27 11:10:28;;;;;;;1.27;1.00;;;9.20;39.40;;;;;;5001294;28;20432;-62
2021/03/27 11:13:03;;;;;;;1.20;1.10;;;9.20;39.30;;;;;;5024055;28;21010;-63
2021/03/27 11:15:49;;;;;;;0.90;0.90;;;9.40;39.00;;;;;;5009368;28;20415;-62
2021/03/27 11:18:36;;;;;;;1.00;1.00;;;9.70;39.40;;;;;;5011213;28;20455;-63
2021/03/27 11:21:14;;;;;;;2.87;1.10;;;9.80;39.60;;;;;;4998664;28;20424;-62
2021/03/27 11:23:48;;;;;;;1.10;1.00;;;10.00;38.50;;;;;;5000085;28;20553;-62
2021/03/27 11:26:31;;;;;;;1.37;1.10;;;10.10;38.50;;;;;;5011098;28;20445;-62
2021/03/27 11:29:29;;;;;;;1.50;1.13;;;10.20;36.70;;;;;;5012764;28;20455;-63
2021/03/27 11:32:08;;;;;;;1.13;1.03;;;10.20;36.70;;;;;;5013736;28;21409;-63
2021/03/27 11:35:05;;;;;;;3.23;1.20;;;10.30;37.00;;;;;;5015677;28;20434;-62
2021/03/27 11:37:50;;;;;;;1.40;1.27;;;10.40;37.30;;;;;;4998760;28;20517;-63
2021/03/27 11:40:27;;;;;;;4.00;1.07;;;10.50;37.10;;;;;;5007792;28;20412;-62
2021/03/27 11:43:00;;;;;;;1.60;1.30;;;10.70;35.50;;;;;;5002437;28;20464;-63
2021/03/27 11:45:34;;;;;;;1.00;1.00;;;10.90;37.10;;;;;;5013372;28;20489;-62
2021/03/27 11:48:21;;;;;;;4.27;1.40;;;11.10;36.90;;;;;;5011609;28;20431;-63
2021/03/27 11:50:59;;;;;;;4.33;2.20;;;11.30;37.00;;;;;;4990757;28;20428;-62
2021/03/27 11:53:45;;;;;;;5.10;1.10;;;11.40;35.50;;;;;;5004899;28;20443;-62
2021/03/27 11:56:38;;;;;;;3.63;1.40;;;11.50;35.00;;;;;;5006904;28;20463;-61
2021/03/27 12:02:35;;;;;;;1.53;1.20;;;12.00;35.70;;;;;;4998070;28;20583;-63
2021/03/27 12:05:19;;;;;;;2.07;1.27;;;12.30;35.40;;;;;;5002579;28;20426;-63
2021/03/27 12:08:04;;;;;;;2.50;1.30;;;12.40;35.60;;;;;;5017664;28;20986;-63
2021/03/27 12:10:35;;;;;;;2.00;1.30;;;12.30;34.80;;;;;;4998570;28;20432;-62
2021/03/27 12:13:19;;;;;;;2.00;1.10;;;11.90;34.90;;;;;;4997916;28;20812;-61
2021/03/27 12:16:20;;;;;;;3.40;1.50;;;11.70;36.00;;;;;;5004496;28;20967;-63
2021/03/27 12:19:00;;;;;;;1.50;1.40;;;11.70;36.30;;;;;;5006077;28;20508;-62
2021/03/27 12:21:29;;;;;;;1.27;1.10;;;11.50;36.20;;;;;;5001142;28;20436;-62
2021/03/27 12:24:05;;;;;;;1.53;1.10;;;11.30;35.80;;;;;;5007680;28;20546;-63
2021/03/27 12:26:50;;;;;;;4.30;1.20;;;11.10;35.40;;;;;;5001468;28;21141;-63
2021/03/27 12:29:27;;;;;;;2.20;1.17;;;11.30;36.70;;;;;;4995770;28;20483;-62
2021/03/27 12:32:38;;;;;;;1.77;1.40;;;11.90;36.30;;;;;;5012426;28;20434;-64
2021/03/27 12:35:25;;;;;;;1.40;1.30;;;12.10;34.70;;;;;;5013036;28;20431;-63
2021/03/27 12:38:06;;;;;;;1.57;1.10;;;12.40;34.50;;;;;;4992327;28;20490;-62
2021/03/27 12:40:42;;;;;;;5.47;1.50;;;12.60;32.30;;;;;;5012563;28;20454;-64
2021/03/27 12:43:13;;;;;;;1.63;1.30;;;12.70;32.90;;;;;;5003440;28;20473;-63
2021/03/27 12:46:13;;;;;;;2.10;1.07;;;13.00;33.60;;;;;;5002127;28;20953;-63
2021/03/27 12:48:59;;;;;;;1.30;1.03;;;13.50;33.90;;;;;;5018806;28;20450;-63
2021/03/27 12:51:46;;;;;;;1.93;1.40;;;13.70;32.30;;;;;;5005469;28;20416;-63
2021/03/27 12:54:29;;;;;;;4.33;1.30;;;13.60;32.10;;;;;;4999536;28;20463;-63
2021/03/27 12:57:34;;;;;;;1.50;1.40;;;13.60;32.50;;;;;;5005680;28;20943;-62
2021/03/27 13:00:31;;;;;;;1.93;1.37;;;13.60;32.00;;;;;;4992283;28;20439;-63
2021/03/27 13:03:15;;;;;;;2.60;1.33;;;13.70;32.20;;;;;;5007385;28;20480;-63
2021/03/27 13:06:10;;;;;;;6.20;1.40;;;14.00;31.90;;;;;;5015279;28;20935;-63
2021/03/27 13:08:40;;;;;;;3.20;1.50;;;14.10;31.30;;;;;;4984238;28;20456;-62
2021/03/27 13:11:17;;;;;;;2.00;1.30;;;14.10;31.70;;;;;;4994655;28;20455;-64
2021/03/27 13:14:04;;;;;;;2.07;1.13;;;13.80;30.80;;;;;;5003507;28;20499;-59
2021/03/27 13:16:43;;;;;;;1.80;1.30;;;13.70;31.80;;;;;;4998212;28;20943;-57
2021/03/27 13:19:31;;;;;;;2.27;1.30;;;13.50;30.50;;;;;;5005447;28;20455;-59
2021/03/27 13:22:16;;;;;;;1.07;1.07;;;13.50;31.10;;;;;;5013407;28;20943;-59
2021/03/27 13:25:19;;;;;;;1.20;1.10;;;13.70;30.50;;;;;;5001459;28;20474;-59
2021/03/27 13:27:47;;;;;;;3.87;1.20;;;13.80;31.00;;;;;;5014257;28;20842;-59
2021/03/27 13:30:21;;;;;;;3.27;1.20;;;14.00;31.00;;;;;;5014617;28;20489;-58
2021/03/27 13:33:01;;;;;;;2.90;1.27;;;14.40;30.10;;;;;;5005836;28;20433;-59
2021/03/27 13:36:08;;;;;;;1.30;1.20;;;14.10;29.50;;;;;;5004007;28;20462;-59
2021/03/27 13:39:18;;;;;;;4.00;1.30;;;13.40;29.70;;;;;;5016572;28;20875;-59
2021/03/27 13:42:20;;;;;;;2.43;1.33;;;12.80;30.10;;;;;;5014065;28;20438;-59
2021/03/27 13:44:52;;;;;;;3.53;1.20;;;12.40;32.20;;;;;;5004510;28;20447;-59
2021/03/27 13:47:25;;;;;;;2.57;1.17;;;12.90;32.00;;;;;;5018739;28;20452;-59
2021/03/27 13:50:26;;;;;;;3.97;1.43;;;13.20;30.50;;;;;;5001970;28;20959;-59
2021/03/27 13:53:10;;;;;;;1.03;0.90;;;13.50;30.00;;;;;;4985901;28;20668;-57
2021/03/27 13:56:04;;;;;;;4.67;1.30;;;13.70;30.00;;;;;;5007626;28;20438;-59
2021/03/27 13:58:41;;;;;;;1.17;1.07;;;13.90;29.50;;;;;;5007909;28;20557;-60
2021/03/27 14:01:23;;;;;;;1.57;1.00;;;14.20;29.30;;;;;;5001062;28;20470;-61
2021/03/27 14:04:04;;;;;;;1.90;1.20;;;14.00;28.60;;;;;;4998723;28;20793;-60
2021/03/27 14:06:35;;;;;;;2.10;1.40;;;14.00;29.60;;;;;;4994601;28;20439;-64
2021/03/27 14:09:07;;;;;;;1.70;1.10;;;14.00;28.90;;;;;;4998283;28;20533;-61
2021/03/27 14:11:50;;;;;;;1.87;1.03;;;14.30;29.20;;;;;;4999608;28;20431;-64
2021/03/27 14:14:28;;;;;;;1.57;1.47;;;14.60;29.10;;;;;;5010985;28;20442;-65
2021/03/27 14:17:32;;;;;;;2.47;1.30;;;14.40;29.50;;;;;;4996396;28;20453;-65
2021/03/27 14:20:21;;;;;;;2.10;1.40;;;14.30;29.70;;;;;;5000102;28;20423;-64
2021/03/27 14:22:56;;;;;;;2.20;1.40;;;14.20;30.00;;;;;;4975906;28;20466;-62
2021/03/27 14:25:42;;;;;;;1.67;1.10;;;14.10;30.10;;;;;;4985402;28;20442;-65
2021/03/27 14:28:07;;;;;;;1.63;1.10;;;14.00;30.30;;;;;;4996984;28;21457;-66
2021/03/27 14:31:03;;;;;;;3.20;1.20;;;13.30;29.90;;;;;;5000206;28;20530;-64